Nodine, Minnesota
Current Conditions -  °F | °C
As of 1:53 AM on Saturday 01 Nov 2014 (Local Time) from KLSE Reporting Station
Clear Clear  
Wind Chill: 26°   Ceiling: Unl
Heat Index: 26°   Visibility: 10mi
Dew Point: 17°   Wind: 0mph
Humidity: 69%   Direction: NA
Pressure: 30.49"   Gusts: NA
Location:  43.9163°N, 91.4255°W
Report Text: KLSE 010653Z AUTO 00000KT 10SM CLR M03/M08 A3049 RMK AO2 SLP336 T10331083
Loading
Personal Weather Stations






























Interactive Weather Map
Tropical Storm Tracking
New forecast layout! Learn more

10-Day Weather Forecast

Advertisements
Track Severe Weather on mobile